sensor_id;sensor_type;location;lat;lon;timestamp;temperature;humidity
24444;DHT22;13346;50.984;5.822;2023-04-24T00:02:05;9.40;99.90
24444;DHT22;13346;50.984;5.822;2023-04-24T00:04:36;9.40;99.90
24444;DHT22;13346;50.984;5.822;2023-04-24T00:07:06;9.40;99.90
24444;DHT22;13346;50.984;5.822;2023-04-24T00:09:33;9.40;99.90
24444;DHT22;13346;50.984;5.822;2023-04-24T00:12:00;9.40;99.90
24444;DHT22;13346;50.984;5.822;2023-04-24T00:14:29;9.40;99.90
24444;DHT22;13346;50.984;5.822;2023-04-24T00:16:56;9.40;99.90
24444;DHT22;13346;50.984;5.822;2023-04-24T00:19:25;9.40;99.90
24444;DHT22;13346;50.984;5.822;2023-04-24T00:21:52;9.30;99.90
24444;DHT22;13346;50.984;5.822;2023-04-24T00:24:19;9.30;99.90
24444;DHT22;13346;50.984;5.822;2023-04-24T00:26:47;9.30;99.90
24444;DHT22;13346;50.984;5.822;2023-04-24T00:29:14;9.30;99.90
24444;DHT22;13346;50.984;5.822;2023-04-24T00:31:41;9.20;99.90
24444;DHT22;13346;50.984;5.822;2023-04-24T00:34:08;9.20;99.90
24444;DHT22;13346;50.984;5.822;2023-04-24T00:36:37;9.20;99.90
24444;DHT22;13346;50.984;5.822;2023-04-24T00:39:04;9.20;99.90
24444;DHT22;13346;50.984;5.822;2023-04-24T00:41:34;9.20;99.90
24444;DHT22;13346;50.984;5.822;2023-04-24T00:44:02;9.30;99.90
24444;DHT22;13346;50.984;5.822;2023-04-24T00:46:29;9.20;99.90
24444;DHT22;13346;50.984;5.822;2023-04-24T00:48:57;9.20;99.90
24444;DHT22;13346;50.984;5.822;2023-04-24T00:51:25;9.30;99.90
24444;DHT22;13346;50.984;5.822;2023-04-24T00:53:54;9.20;99.90
24444;DHT22;13346;50.984;5.822;2023-04-24T00:56:21;9.20;99.90
24444;DHT22;13346;50.984;5.822;2023-04-24T00:58:49;9.20;99.90
24444;DHT22;13346;50.984;5.822;2023-04-24T01:01:17;9.20;99.90
24444;DHT22;13346;50.984;5.822;2023-04-24T01:03:46;9.10;99.90
24444;DHT22;13346;50.984;5.822;2023-04-24T01:06:14;9.20;99.90
24444;DHT22;13346;50.984;5.822;2023-04-24T01:08:42;9.20;99.90
24444;DHT22;13346;50.984;5.822;2023-04-24T01:11:11;9.20;99.90
24444;DHT22;13346;50.984;5.822;2023-04-24T01:13:39;9.20;99.90
24444;DHT22;13346;50.984;5.822;2023-04-24T01:16:07;9.20;99.90
24444;DHT22;13346;50.984;5.822;2023-04-24T01:18:34;9.20;99.90
24444;DHT22;13346;50.984;5.822;2023-04-24T01:21:04;9.20;99.90
24444;DHT22;13346;50.984;5.822;2023-04-24T01:23:32;9.20;99.90
24444;DHT22;13346;50.984;5.822;2023-04-24T01:26:00;9.10;99.90
24444;DHT22;13346;50.984;5.822;2023-04-24T01:28:28;9.10;99.90
24444;DHT22;13346;50.984;5.822;2023-04-24T01:30:56;9.10;99.90
24444;DHT22;13346;50.984;5.822;2023-04-24T01:33:23;9.10;99.90
24444;DHT22;13346;50.984;5.822;2023-04-24T01:35:50;9.10;99.90
24444;DHT22;13346;50.984;5.822;2023-04-24T01:38:18;9.10;99.90
24444;DHT22;13346;50.984;5.822;2023-04-24T01:40:47;9.20;99.90
24444;DHT22;13346;50.984;5.822;2023-04-24T01:43:14;9.20;99.90
24444;DHT22;13346;50.984;5.822;2023-04-24T01:45:42;9.20;99.90
24444;DHT22;13346;50.984;5.822;2023-04-24T01:48:09;9.20;99.90
24444;DHT22;13346;50.984;5.822;2023-04-24T01:50:36;9.10;99.90
24444;DHT22;13346;50.984;5.822;2023-04-24T01:53:03;9.10;99.90
24444;DHT22;13346;50.984;5.822;2023-04-24T01:55:31;9.10;99.90
24444;DHT22;13346;50.984;5.822;2023-04-24T22:52:43;7.30;99.90
24444;DHT22;13346;50.984;5.822;2023-04-24T22:55:10;7.30;99.90
24444;DHT22;13346;50.984;5.822;2023-04-24T22:57:38;7.30;99.90
24444;DHT22;13346;50.984;5.822;2023-04-24T23:00:07;7.20;99.90
24444;DHT22;13346;50.984;5.822;2023-04-24T23:02:38;7.20;99.90
24444;DHT22;13346;50.984;5.822;2023-04-24T23:05:06;7.30;99.90
24444;DHT22;13346;50.984;5.822;2023-04-24T23:07:34;7.20;99.90
24444;DHT22;13346;50.984;5.822;2023-04-24T23:10:05;7.20;99.90
24444;DHT22;13346;50.984;5.822;2023-04-24T23:12:32;7.30;99.90
24444;DHT22;13346;50.984;5.822;2023-04-24T23:14:59;7.30;99.90
24444;DHT22;13346;50.984;5.822;2023-04-24T23:17:27;7.10;99.90
24444;DHT22;13346;50.984;5.822;2023-04-24T23:19:54;7.00;99.90
24444;DHT22;13346;50.984;5.822;2023-04-24T23:22:21;7.00;99.90
24444;DHT22;13346;50.984;5.822;2023-04-24T23:24:49;7.00;99.90
24444;DHT22;13346;50.984;5.822;2023-04-24T23:27:17;7.00;99.90
24444;DHT22;13346;50.984;5.822;2023-04-24T23:29:45;6.90;99.90
24444;DHT22;13346;50.984;5.822;2023-04-24T23:32:12;6.90;99.90
24444;DHT22;13346;50.984;5.822;2023-04-24T23:34:39;6.80;99.90
24444;DHT22;13346;50.984;5.822;2023-04-24T23:37:07;6.80;99.90
24444;DHT22;13346;50.984;5.822;2023-04-24T23:39:34;6.80;99.90
24444;DHT22;13346;50.984;5.822;2023-04-24T23:42:01;6.90;99.90
24444;DHT22;13346;50.984;5.822;2023-04-24T23:44:29;7.00;99.90
24444;DHT22;13346;50.984;5.822;2023-04-24T23:46:56;7.10;99.90
24444;DHT22;13346;50.984;5.822;2023-04-24T23:49:24;7.00;99.90
24444;DHT22;13346;50.984;5.822;2023-04-24T23:51:52;6.90;99.90
24444;DHT22;13346;50.984;5.822;2023-04-24T23:54:19;6.90;99.90
24444;DHT22;13346;50.984;5.822;2023-04-24T23:56:46;7.00;99.90
24444;DHT22;13346;50.984;5.822;2023-04-24T23:59:13;6.90;99.90
